Latest Weather Observations for Yamba

IDN60801

Issued at 11:43 am EDT Monday 26 February 2024 (issued every 10 minutes, with the page automatically refreshed every 10 minutes)

About weather observations | Map of weather stations | Latest weather observations for NSW | Other Formats
Station Details ID: 058012 Name: YAMBA PILOT STATION Lat: -29.43 Lon: 153.36 Height: 27.4 m
Data from the previous 72 hours. | See also: Recent months at Yamba
Date/Time
EDT
Temp
°C
App
Temp
°C
Dew
Point
°C
Rel
Hum
%
Delta-T
°C
Wind Press
QNH
hPa
Press
MSL
hPa
Rain since
9am
mm
Dir  Spd
km/h
Gust
km/h
Spd
kts
Gust
kts
26/11:30am 28.3 31.4 22.1 69 4.2 E 9 13 5 7 1014.5 1014.3 0.0
26/11:00am 28.6 31.9 22.6 70 4.1 NE 9 13 5 7 1014.8 1014.6 0.0
26/10:30am 28.0 31.4 22.0 70 4.0 NE 7 11 4 6 1015.0 1014.8 0.0
26/10:00am 27.9 31.8 22.6 73 3.6 NW 6 11 3 6 1015.0 1014.8 0.0
26/09:30am 26.9 30.1 21.6 72 3.5 W 7 11 4 6 1014.8 1014.6 0.0
26/09:00am 25.9 28.9 21.3 76 3.0 W 7 11 4 6 1014.6 1014.4 0.0
26/08:30am 25.0 27.9 21.1 79 2.6 WSW 7 11 4 6 1014.6 1014.4 0.0
26/08:00am 24.4 27.5 21.5 84 1.9 SW 7 11 4 6 1014.6 1014.4 0.0
26/07:30am 23.3 26.1 20.8 86 1.6 SW 7 11 4 6 1014.5 1014.3 0.0
26/07:00am 23.1 25.6 21.0 88 1.4 WSW 9 13 5 7 1013.9 1013.7 0.0
26/06:30am 23.0 25.3 20.7 87 1.5 WSW 9 11 5 6 1013.6 1013.4 0.0
26/06:00am 23.0 25.6 20.5 86 1.6 WSW 7 9 4 5 1013.6 1013.4 0.0
26/05:30am 23.2 26.2 20.9 87 1.5 WSW 6 9 3 5 1013.7 1013.5 0.0
26/05:00am 23.1 25.9 20.8 87 1.5 WSW 7 11 4 6 1013.5 1013.3 0.0
26/04:30am 23.0 25.8 20.9 88 1.4 W 7 9 4 5 1013.4 1013.2 0.0
26/04:00am 23.1 26.0 21.0 88 1.4 WSW 7 13 4 7 1013.2 1013.0 0.0
26/03:30am 23.3 26.3 21.2 88 1.4 W 7 11 4 6 1013.2 1013.0 0.0
26/03:00am 23.4 26.5 21.1 87 1.5 WSW 6 9 3 5 1013.5 1013.3 0.0
26/02:30am 23.6 26.7 21.5 88 1.4 WSW 7 13 4 7 1013.8 1013.6 0.0
26/02:00am 23.8 26.7 21.7 88 1.4 SSW 9 13 5 7 1014.1 1013.9 0.0
26/01:30am 23.9 26.2 21.4 86 1.6 SSW 11 19 6 10 1014.4 1014.2 0.0
26/01:00am 24.1 26.4 21.4 85 1.8 SSW 11 17 6 9 1014.6 1014.4 0.0
26/12:30am 23.9 26.6 21.4 86 1.6 SSW 9 13 5 7 1014.5 1014.3 0.0
26/12:00am 24.1 27.3 21.6 86 1.7 SW 7 13 4 7 1014.5 1014.3 0.0
 
Date/Time
EDT
Temp
°C
App
Temp
°C
Dew
Point
°C
Rel
Hum
%
Delta-T
°C
Wind Press
QNH
hPa
Press
MSL
hPa
Rain since
9am
mm
Dir  Spd
km/h
Gust
km/h
Spd
kts
Gust
kts
25/11:30pm 24.1 27.0 21.8 87 1.5 SW 9 13 5 7 1014.8 1014.6 0.0
25/11:00pm 24.4 27.4 21.9 86 1.7 SW 9 15 5 8 1014.8 1014.6 0.0
25/10:30pm 24.6 27.9 21.9 85 1.8 SW 7 11 4 6 1015.1 1014.9 0.0
25/10:00pm 24.9 28.0 22.2 85 1.8 SW 9 15 5 8 1015.1 1014.9 0.0
25/09:30pm 24.8 27.4 21.9 84 1.9 SSW 11 17 6 9 1015.1 1014.9 0.0
25/09:00pm 25.0 28.0 21.9 83 2.1 SSW 9 15 5 8 1014.9 1014.7 0.0
25/08:30pm 24.9 26.9 21.6 82 2.2 S 13 19 7 10 1014.7 1014.5 0.0
25/08:00pm 25.0 26.8 21.9 83 2.1 SSE 15 24 8 13 1014.5 1014.3 0.0
25/07:30pm 24.8 25.2 21.7 83 2.1 SSE 22 30 12 16 1014.1 1013.9 0.0
25/07:00pm 24.6 25.4 21.7 84 1.9 SSE 20 30 11 16 1013.8 1013.6 0.0
25/06:30pm 24.9 25.4 22.0 84 1.9 SSE 22 32 12 17 1013.6 1013.4 0.0
25/06:00pm 25.5 25.4 22.2 82 2.2 SSE 26 35 14 19 1013.4 1013.2 0.0
25/05:30pm 25.5 25.9 21.8 80 2.5 SSE 22 33 12 18 1013.2 1013.0 0.0
25/05:00pm 25.7 26.0 22.2 81 2.3 SSE 24 35 13 19 1013.4 1013.2 0.0
25/04:30pm 26.1 26.5 21.7 77 2.9 SSE 22 35 12 19 1013.3 1013.1 0.0
25/04:00pm 26.2 25.5 21.8 77 2.9 SSE 28 37 15 20 1013.3 1013.1 0.0
25/03:30pm 26.2 25.7 22.1 78 2.7 SSE 28 44 15 24 1013.4 1013.2 0.0
25/03:00pm 26.2 24.2 21.8 77 2.9 SSE 35 50 19 27 1013.5 1013.3 0.0
25/02:50pm 26.5 24.5 21.9 76 3.1 SSE 35 54 19 29 1013.6 1013.4 0.0
25/02:30pm 27.0 26.6 22.4 76 3.1 SSE 28 39 15 21 1013.8 1013.6 0.0
25/02:00pm 26.3 26.3 21.7 76 3.1 SSE 24 32 13 17 1014.2 1014.0 0.0
25/01:30pm 27.4 27.2 22.8 76 3.1 SSE 28 46 15 25 1014.6 1014.4 0.0
25/01:22pm 27.0 26.7 22.6 77 3.0 SSE 28 46 15 25 1014.6 1014.4 0.0
25/01:00pm 26.7 25.3 21.9 75 3.2 SSE 32 41 17 22 1014.8 1014.6 0.0
25/12:30pm 26.5 26.2 21.9 76 3.1 SSE 26 39 14 21 1015.0 1014.8 0.0
25/12:00pm 27.1 27.9 22.5 76 3.1 SSE 22 33 12 18 1015.5 1015.3 0.0
25/11:30am 26.6 27.0 22.4 78 2.8 SSE 24 35 13 19 1015.5 1015.3 0.0
25/11:00am 25.4 25.5 21.9 81 2.3 SSE 24 32 13 17 1015.6 1015.4 0.0
25/10:30am 26.5 28.1 22.8 80 2.5 SSE 19 26 10 14 1015.5 1015.3 0.0
25/10:00am 25.8 28.9 22.9 84 2.0 SSE 11 22 6 12 1015.7 1015.5 0.0
25/09:30am 25.4 27.2 22.5 84 2.0 S 17 24 9 13 1015.6 1015.4 0.0
25/09:00am 24.7 27.8 22.2 86 1.7 SW 9 13 5 7 1015.5 1015.3 0.4
25/08:30am 24.2 27.2 21.9 87 1.5 SSW 9 15 5 8 1015.4 1015.2 0.4
25/08:00am 23.7 27.1 21.6 88 1.4 WSW 6 11 3 6 1015.1 1014.9 0.4
25/07:30am 23.6 26.7 21.5 88 1.4 SW 7 13 4 7 1014.9 1014.7 0.4
25/07:00am 23.7 26.0 21.4 87 1.5 SSW 11 17 6 9 1014.7 1014.5 0.4
25/06:30am 23.5 25.6 21.0 86 1.6 SSW 11 15 6 8 1014.1 1013.9 0.4
25/06:00am 23.4 25.4 20.7 85 1.8 SSW 11 17 6 9 1014.2 1014.0 0.4
25/05:30am 23.5 25.2 21.0 86 1.6 SSW 13 19 7 10 1014.0 1013.8 0.4
25/05:00am 23.6 26.6 21.3 87 1.5 SW 7 13 4 7 1013.9 1013.7 0.4
25/04:30am 23.8 26.5 21.3 86 1.6 SSW 9 15 5 8 1013.6 1013.4 0.4
25/04:00am 23.4 25.0 20.7 85 1.8 S 13 17 7 9 1013.4 1013.2 0.4
25/03:30am 23.8 26.6 21.5 87 1.5 S 9 15 5 8 1013.4 1013.2 0.4
25/03:00am 23.9 26.4 21.8 88 1.4 SSW 11 17 6 9 1013.6 1013.4 0.4
25/02:30am 23.7 25.5 21.2 86 1.6 SSW 13 20 7 11 1013.8 1013.6 0.4
25/02:00am 23.7 26.1 21.6 88 1.4 SSW 11 15 6 8 1014.2 1014.0 0.4
25/01:30am 23.6 26.1 21.1 86 1.6 SSW 9 13 5 7 1014.5 1014.3 0.4
25/01:00am 23.5 26.0 21.0 86 1.6 SW 9 11 5 6 1014.7 1014.5 0.4
25/12:30am 23.4 26.1 20.7 85 1.8 SSE 7 9 4 5 1014.5 1014.3 0.4
25/12:00am 23.9 26.2 21.4 86 1.6 S 11 15 6 8 1015.0 1014.8 0.4
 
Date/Time
EDT
Temp
°C
App
Temp
°C
Dew
Point
°C
Rel
Hum
%
Delta-T
°C
Wind Press
QNH
hPa
Press
MSL
hPa
Rain since
9am
mm
Dir  Spd
km/h
Gust
km/h
Spd
kts
Gust
kts
24/11:30pm 24.0 24.6 21.3 85 1.8 SE 20 30 11 16 1014.9 1014.7 0.4
24/11:00pm 23.8 24.4 21.3 86 1.6 ESE 20 33 11 18 1015.0 1014.8 0.2
24/10:30pm 23.9 21.0 21.6 87 1.5 SE 39 52 21 28 1015.0 1014.8 0.2
24/10:00pm 24.4 22.7 22.5 89 1.3 SE 35 43 19 23 1015.2 1015.0 0.2
24/09:30pm 25.1 24.1 23.0 88 1.4 SSE 33 44 18 24 1014.8 1014.6 0.2
24/09:01pm 25.5 24.3 21.6 79 2.6 SSE 30 48 16 26 1014.5 1014.3 0.2
24/09:00pm 25.5 23.8 21.4 78 2.7 SSE 32 48 17 26 1014.5 1014.3 0.2
24/08:53pm 25.6 24.8 21.7 79 2.6 SSE 28 48 15 26 1014.3 1014.1 0.2
24/08:30pm 26.0 26.7 22.9 83 2.1 SSE 24 43 13 23 1013.4 1013.2 0.2
24/08:00pm 26.4 29.1 24.1 87 1.6 S 17 32 9 17 1012.8 1012.6 0.2
24/07:30pm 26.4 29.8 24.6 90 1.2 S 15 22 8 12 1012.1 1012.0 0.2
24/07:00pm 26.5 29.7 24.3 88 1.5 S 15 24 8 13 1012.2 1012.1 0.2
24/06:30pm 26.5 29.0 24.5 89 1.4 SSE 19 28 10 15 1011.6 1011.5 0.2
24/06:00pm 26.3 28.5 24.0 87 1.6 S 19 33 10 18 1011.7 1011.6 0.0
24/05:30pm 26.4 28.3 23.7 85 1.9 S 20 32 11 17 1011.4 1011.3 0.0
24/05:00pm 26.6 28.5 23.7 84 2.0 S 20 35 11 19 1011.3 1011.2 0.0
24/04:30pm 26.9 28.9 23.6 82 2.3 S 19 33 10 18 1010.9 1010.8 0.0
24/04:00pm 27.2 28.5 23.4 80 2.6 SSE 22 37 12 20 1010.7 1010.6 0.0
24/03:30pm 27.8 29.0 23.8 79 2.8 SSE 24 37 13 20 1010.9 1010.8 0.0
24/03:00pm 28.0 30.3 24.4 81 2.5 SSE 20 35 11 19 1011.1 1011.0 0.0
24/02:30pm 28.4 31.6 24.4 79 2.8 SSE 15 20 8 11 1011.5 1011.4 0.0
24/02:00pm 28.4 31.7 23.8 76 3.2 SE 13 15 7 8 1011.4 1011.3 0.0
24/01:30pm 27.7 31.5 23.5 78 2.9 SE 9 13 5 7 1011.4 1011.3 0.0
24/01:00pm 27.9 34.0 24.5 82 2.4 CALM 0 6 0 3 1011.8 1011.7 0.0
24/12:30pm 27.3 32.4 24.0 82 2.3 NW 4 11 2 6 1011.9 1011.8 0.0
24/12:00pm 27.3 32.4 24.6 85 1.9 WNW 6 9 3 5 1012.0 1011.9 0.0
24/11:30am 27.4 31.6 24.7 85 1.9 NW 11 15 6 8 1012.3 1012.2 0.0
24/11:00am 27.2 32.1 24.3 84 2.0 NW 6 11 3 6 1011.9 1011.8 0.0
24/10:30am 26.8 32.1 23.7 83 2.1 WNW 2 9 1 5 1011.7 1011.6 0.0
24/10:00am 26.5 31.2 24.0 86 1.7 W 6 9 3 5 1011.4 1011.3 0.0
24/09:30am 26.6 31.4 24.4 88 1.5 WNW 7 9 4 5 1011.3 1011.2 0.0
24/09:00am 26.6 32.3 24.4 88 1.5 NW 2 7 1 4 1011.0 1010.9 0.0
24/08:30am 26.6 32.4 24.6 89 1.4 NW 2 7 1 4 1010.7 1010.6 0.0
24/08:00am 26.5 31.5 24.5 89 1.4 NNW 6 7 3 4 1010.3 1010.2 0.0
24/07:30am 26.1 31.2 24.0 88 1.4 SW 4 7 2 4 1010.1 1010.0 0.0
24/07:00am 26.0 30.1 23.9 88 1.4 SSW 9 13 5 7 1010.0 1009.9 0.0
24/06:30am 25.9 30.2 23.6 87 1.6 WSW 7 9 4 5 1010.0 1009.9 0.0
24/06:00am 26.0 30.7 24.0 89 1.4 NNW 6 9 3 5 1009.1 1009.0 0.0
24/05:30am 26.0 30.6 24.2 90 1.2 NNW 7 11 4 6 1008.7 1008.6 0.0
24/05:00am 25.7 30.0 23.7 89 1.4 NNW 7 7 4 4 1008.4 1008.3 0.0
24/04:30am 25.9 30.0 23.9 89 1.4 NW 9 13 5 7 1008.2 1008.1 0.0
24/04:00am 26.1 30.9 24.1 89 1.4 NNW 6 11 3 6 1008.1 1008.0 0.0
24/03:30am 26.1 30.4 24.3 90 1.2 NW 9 11 5 6 1008.4 1008.3 0.0
24/03:00am 26.1 30.9 24.1 89 1.4 N 6 9 3 5 1008.2 1008.1 0.0
24/02:30am 26.4 31.3 24.6 90 1.2 NNW 7 9 4 5 1008.7 1008.6 0.0
24/02:00am 26.3 31.0 24.3 89 1.4 NNW 7 9 4 5 1008.9 1008.8 0.0
24/01:30am 26.4 31.2 24.2 88 1.5 NNW 6 9 3 5 1009.0 1008.9 0.0
24/01:00am 26.6 31.4 24.4 88 1.5 NNW 7 9 4 5 1009.1 1009.0 0.0
24/12:30am 26.8 31.9 24.6 88 1.5 NNW 6 9 3 5 1009.4 1009.3 0.0
24/12:00am 26.7 31.5 24.4 87 1.6 N 7 9 4 5 1009.4 1009.3 0.0
 
Date/Time
EDT
Temp
°C
App
Temp
°C
Dew
Point
°C
Rel
Hum
%
Delta-T
°C
Wind Press
QNH
hPa
Press
MSL
hPa
Rain since
9am
mm
Dir  Spd
km/h
Gust
km/h
Spd
kts
Gust
kts
23/11:30pm 26.8 31.7 24.3 86 1.7 N 6 7 3 4 1009.5 1009.4 0.0
23/11:00pm 26.8 30.7 24.3 86 1.7 NNW 11 15 6 8 1009.5 1009.4 0.0
23/10:30pm 27.1 32.0 24.6 86 1.7 N 7 11 4 6 1009.4 1009.3 0.0
23/10:00pm 27.3 31.9 24.7 86 1.8 N 9 15 5 8 1009.4 1009.3 0.0
23/09:30pm 27.6 32.2 24.8 85 2.0 N 9 13 5 7 1009.5 1009.4 0.0
23/09:00pm 27.8 32.5 25.0 85 2.0 N 9 15 5 8 1009.2 1009.1 0.0
23/08:30pm 27.9 32.5 24.7 83 2.2 N 9 17 5 9 1009.1 1009.0 0.0
23/08:00pm 27.9 32.1 24.1 80 2.6 N 9 17 5 9 1008.9 1008.8 0.0
23/07:30pm 27.5 31.0 23.5 79 2.7 N 11 17 6 9 1008.8 1008.7 0.0
23/07:00pm 27.8 31.9 24.0 80 2.6 N 9 15 5 8 1008.4 1008.3 0.0
23/06:30pm 28.6 32.5 24.2 77 3.1 N 11 19 6 10 1008.2 1008.1 0.0
23/06:00pm 29.2 33.3 23.9 73 3.7 N 9 17 5 9 1008.2 1008.1 0.0
23/05:30pm 29.9 34.0 24.5 73 3.8 N 11 19 6 10 1007.9 1007.8 0.0
23/05:00pm 30.1 34.3 24.7 73 3.8 N 11 19 6 10 1008.0 1007.9 0.0
23/04:30pm 30.1 34.4 24.9 73 3.7 NNE 11 19 6 10 1008.2 1008.1 0.0
23/04:00pm 31.5 35.5 25.1 69 4.5 NNE 13 20 7 11 1008.4 1008.3 0.0
23/03:30pm 31.1 35.1 25.0 70 4.3 NNE 13 24 7 13 1008.6 1008.5 0.0
23/03:00pm 30.8 34.8 24.4 68 4.5 NNE 11 20 6 11 1008.8 1008.7 0.0
23/02:30pm 31.3 35.9 25.4 71 4.2 NNE 11 17 6 9 1009.4 1009.3 0.0
23/02:00pm 30.9 35.0 24.5 68 4.5 NNE 11 20 6 11 1009.9 1009.8 0.0
23/01:30pm 31.3 35.2 24.9 69 4.5 NNE 13 19 7 10 1010.4 1010.3 0.0
23/01:00pm 31.0 35.5 25.8 74 3.7 NNE 13 17 7 9 1010.7 1010.6 0.0
23/12:30pm 29.8 33.6 24.0 71 4.0 NNE 11 15 6 8 1011.1 1011.0 0.0
23/12:00pm 30.3 34.6 24.9 73 3.8 NNE 11 15 6 8 1011.5 1011.4 0.0

Other formats

Comma delimited format used in spreadsheet applications
http://www.bom.gov.au/fwo/IDN60801/IDN60801.94589.axf

JavaScript Object Notation format (JSON) in row-major order
http://www.bom.gov.au/fwo/IDN60801/IDN60801.94589.json

Data quality

Most of these data are generated automatically and are frequently updated. Quality checks on data are not normally performed. It is possible for incorrect values to appear. Refer to information at About Latest Weather Observations and please check the disclaimer before using these data.